sensor_id;sensor_type;location;lat;lon;timestamp;pressure;altitude;pressure_sealevel;temperature;humidity
27202;BME280;14717;46.924;15.474;2023-08-21T00:01:02;98399.00;;;21.97;100.00
27202;BME280;14717;46.924;15.474;2023-08-21T00:03:28;98401.34;;;21.95;100.00
27202;BME280;14717;46.924;15.474;2023-08-21T00:05:53;98394.78;;;21.91;100.00
27202;BME280;14717;46.924;15.474;2023-08-21T00:08:18;98402.63;;;21.86;100.00
27202;BME280;14717;46.924;15.474;2023-08-21T00:10:44;98402.63;;;21.86;100.00
27202;BME280;14717;46.924;15.474;2023-08-21T00:13:09;98395.72;;;21.83;100.00
27202;BME280;14717;46.924;15.474;2023-08-21T00:15:35;98401.56;;;21.78;100.00
27202;BME280;14717;46.924;15.474;2023-08-21T00:18:00;98395.00;;;21.75;100.00
27202;BME280;14717;46.924;15.474;2023-08-21T00:20:26;98387.28;;;21.60;100.00
27202;BME280;14717;46.924;15.474;2023-08-21T00:22:52;98397.06;;;21.42;100.00
27202;BME280;14717;46.924;15.474;2023-08-21T00:25:17;98405.50;;;21.30;100.00
27202;BME280;14717;46.924;15.474;2023-08-21T00:27:58;98394.72;;;21.32;100.00
27202;BME280;14717;46.924;15.474;2023-08-21T00:30:39;98394.00;;;21.23;100.00
27202;BME280;14717;46.924;15.474;2023-08-21T00:33:37;98394.72;;;21.32;100.00
27202;BME280;14717;46.924;15.474;2023-08-21T00:36:12;98396.47;;;21.25;100.00
27202;BME280;14717;46.924;15.474;2023-08-21T00:38:44;98396.31;;;21.21;100.00
27202;BME280;14717;46.924;15.474;2023-08-21T00:41:12;98397.41;;;21.29;100.00
27202;BME280;14717;46.924;15.474;2023-08-21T00:43:38;98395.41;;;21.41;100.00
27202;BME280;14717;46.924;15.474;2023-08-21T00:46:10;98396.63;;;21.52;100.00
27202;BME280;14717;46.924;15.474;2023-08-21T00:48:36;98396.75;;;21.55;100.00
27202;BME280;14717;46.924;15.474;2023-08-21T00:51:08;98385.38;;;21.52;100.00
27202;BME280;14717;46.924;15.474;2023-08-21T00:53:37;98394.47;;;21.37;100.00
27202;BME280;14717;46.924;15.474;2023-08-21T00:56:03;98398.16;;;21.05;100.00
27202;BME280;14717;46.924;15.474;2023-08-21T00:58:29;98393.78;;;20.96;100.00
27202;BME280;14717;46.924;15.474;2023-08-21T01:01:01;98400.44;;;20.92;100.00
27202;BME280;14717;46.924;15.474;2023-08-21T01:03:28;98402.31;;;20.88;100.00
27202;BME280;14717;46.924;15.474;2023-08-21T01:05:54;98399.50;;;20.88;100.00
27202;BME280;14717;46.924;15.474;2023-08-21T01:08:55;98398.72;;;20.99;100.00
27202;BME280;14717;46.924;15.474;2023-08-21T01:11:32;98410.34;;;21.09;100.00
27202;BME280;14717;46.924;15.474;2023-08-21T01:14:20;98403.59;;;21.22;100.00
27202;BME280;14717;46.924;15.474;2023-08-21T01:16:53;98397.50;;;21.20;100.00
27202;BME280;14717;46.924;15.474;2023-08-21T01:19:37;98401.72;;;21.26;100.00
27202;BME280;14717;46.924;15.474;2023-08-21T01:22:05;98398.19;;;21.17;100.00
27202;BME280;14717;46.924;15.474;2023-08-21T01:24:30;98402.41;;;20.79;100.00
27202;BME280;14717;46.924;15.474;2023-08-21T01:26:56;98405.25;;;20.91;100.00
27202;BME280;14717;46.924;15.474;2023-08-21T01:29:21;98400.97;;;21.05;100.00
27202;BME280;14717;46.924;15.474;2023-08-21T01:32:02;98397.59;;;21.12;100.00
27202;BME280;14717;46.924;15.474;2023-08-21T01:34:31;98399.41;;;20.96;100.00
27202;BME280;14717;46.924;15.474;2023-08-21T01:36:59;98398.84;;;21.02;100.00
27202;BME280;14717;46.924;15.474;2023-08-21T01:39:25;98402.13;;;21.04;100.00
27202;BME280;14717;46.924;15.474;2023-08-21T01:41:51;98406.38;;;21.10;100.00
27202;BME280;14717;46.924;15.474;2023-08-21T01:44:16;98411.88;;;21.07;100.00
27202;BME280;14717;46.924;15.474;2023-08-21T01:46:41;98403.78;;;21.05;100.00
27202;BME280;14717;46.924;15.474;2023-08-21T01:49:07;98402.78;;;20.90;100.00
27202;BME280;14717;46.924;15.474;2023-08-21T01:51:32;98402.06;;;20.81;100.00
27202;BME280;14717;46.924;15.474;2023-08-21T01:53:57;98398.59;;;20.95;100.00
27202;BME280;14717;46.924;15.474;2023-08-21T01:56:23;98397.63;;;20.92;100.00
27202;BME280;14717;46.924;15.474;2023-08-21T01:58:48;98395.88;;;20.87;100.00
27202;BME280;14717;46.924;15.474;2023-08-21T02:01:14;98400.66;;;20.87;100.00
27202;BME280;14717;46.924;15.474;2023-08-21T02:03:40;98405.72;;;20.93;100.00
27202;BME280;14717;46.924;15.474;2023-08-21T02:06:06;98409.59;;;20.89;100.00
27202;BME280;14717;46.924;15.474;2023-08-21T02:08:32;98407.47;;;20.65;100.00
27202;BME280;14717;46.924;15.474;2023-08-21T02:10:58;98401.31;;;20.51;100.00
27202;BME280;14717;46.924;15.474;2023-08-21T02:13:23;98393.22;;;20.50;100.00
27202;BME280;14717;46.924;15.474;2023-08-21T02:15:49;98396.91;;;20.42;100.00
27202;BME280;14717;46.924;15.474;2023-08-21T02:18:17;98397.56;;;20.48;100.00
27202;BME280;14717;46.924;15.474;2023-08-21T02:20:47;98396.44;;;20.40;100.00
27202;BME280;14717;46.924;15.474;2023-08-21T02:23:15;98391.25;;;20.30;100.00
27202;BME280;14717;46.924;15.474;2023-08-21T02:25:41;98398.94;;;20.21;100.00
27202;BME280;14717;46.924;15.474;2023-08-21T02:28:09;98400.75;;;20.17;100.00
27202;BME280;14717;46.924;15.474;2023-08-21T02:30:35;98399.88;;;20.25;100.00
27202;BME280;14717;46.924;15.474;2023-08-21T02:33:00;98393.84;;;20.35;100.00
27202;BME280;14717;46.924;15.474;2023-08-21T02:35:26;98406.31;;;20.26;100.00
27202;BME280;14717;46.924;15.474;2023-08-21T02:37:51;98402.41;;;20.18;100.00
27202;BME280;14717;46.924;15.474;2023-08-21T02:40:25;98411.22;;;20.08;100.00
27202;BME280;14717;46.924;15.474;2023-08-21T02:43:03;98396.53;;;20.11;100.00
27202;BME280;14717;46.924;15.474;2023-08-21T02:45:36;98402.81;;;20.08;100.00
27202;BME280;14717;46.924;15.474;2023-08-21T02:48:12;98400.28;;;20.15;100.00
27202;BME280;14717;46.924;15.474;2023-08-21T02:50:41;98403.97;;;20.07;100.00
27202;BME280;14717;46.924;15.474;2023-08-21T02:53:09;98404.59;;;20.13;100.00
27202;BME280;14717;46.924;15.474;2023-08-21T02:55:37;98400.06;;;20.20;100.00
27202;BME280;14717;46.924;15.474;2023-08-21T02:58:06;98398.41;;;20.19;100.00
27202;BME280;14717;46.924;15.474;2023-08-21T03:00:34;98396.94;;;20.22;100.00
27202;BME280;14717;46.924;15.474;2023-08-21T03:03:00;98394.59;;;20.24;100.00
27202;BME280;14717;46.924;15.474;2023-08-21T03:05:28;98392.47;;;20.21;100.00
27202;BME280;14717;46.924;15.474;2023-08-21T03:08:18;98394.00;;;20.18;100.00
27202;BME280;14717;46.924;15.474;2023-08-21T03:11:11;98389.59;;;20.09;100.00
27202;BME280;14717;46.924;15.474;2023-08-21T03:13:40;98388.97;;;20.04;100.00
27202;BME280;14717;46.924;15.474;2023-08-21T03:16:08;98395.63;;;20.19;100.00
27202;BME280;14717;46.924;15.474;2023-08-21T03:18:56;98392.47;;;20.21;100.00
27202;BME280;14717;46.924;15.474;2023-08-21T03:21:22;98393.84;;;20.15;100.00
27202;BME280;14717;46.924;15.474;2023-08-21T03:24:07;98391.38;;;20.13;100.00
27202;BME280;14717;46.924;15.474;2023-08-21T03:26:38;98399.44;;;19.95;100.00
27202;BME280;14717;46.924;15.474;2023-08-21T03:29:11;98393.53;;;19.88;100.00
27202;BME280;14717;46.924;15.474;2023-08-21T03:31:42;98400.50;;;19.82;100.00
27202;BME280;14717;46.924;15.474;2023-08-21T03:34:10;98395.88;;;19.77;100.00
27202;BME280;14717;46.924;15.474;2023-08-21T03:36:39;98401.00;;;19.84;100.00
27202;BME280;14717;46.924;15.474;2023-08-21T03:39:04;98403.16;;;19.70;100.00
27202;BME280;14717;46.924;15.474;2023-08-21T03:41:36;98408.78;;;19.70;100.00
27202;BME280;14717;46.924;15.474;2023-08-21T03:44:01;98401.03;;;19.75;100.00
27202;BME280;14717;46.924;15.474;2023-08-21T03:46:27;98401.16;;;19.79;100.00
27202;BME280;14717;46.924;15.474;2023-08-21T03:48:52;98406.41;;;19.89;100.00
27202;BME280;14717;46.924;15.474;2023-08-21T03:51:18;98409.09;;;19.77;100.00
27202;BME280;14717;46.924;15.474;2023-08-21T03:53:43;98405.97;;;19.78;100.00
27202;BME280;14717;46.924;15.474;2023-08-21T03:59:24;98399.31;;;19.83;100.00
27202;BME280;14717;46.924;15.474;2023-08-21T04:01:59;98393.69;;;19.91;100.00
27202;BME280;14717;46.924;15.474;2023-08-21T04:04:25;98393.47;;;19.96;100.00
27202;BME280;14717;46.924;15.474;2023-08-21T04:06:50;98392.66;;;19.96;100.00
27202;BME280;14717;46.924;15.474;2023-08-21T04:09:16;98399.16;;;19.88;100.00
27202;BME280;14717;46.924;15.474;2023-08-21T04:11:41;98393.22;;;19.81;100.00
27202;BME280;14717;46.924;15.474;2023-08-21T04:14:15;98391.72;;;19.92;100.00
27202;BME280;14717;46.924;15.474;2023-08-21T04:17:03;98393.63;;;20.00;100.00
27202;BME280;14717;46.924;15.474;2023-08-21T04:19:29;98395.53;;;20.07;100.00
27202;BME280;14717;46.924;15.474;2023-08-21T04:22:16;98395.06;;;20.06;100.00
27202;BME280;14717;46.924;15.474;2023-08-21T04:24:56;98394.66;;;19.95;100.00
27202;BME280;14717;46.924;15.474;2023-08-21T04:27:53;98397.03;;;19.76;100.00
27202;BME280;14717;46.924;15.474;2023-08-21T04:30:28;98406.03;;;19.62;100.00
27202;BME280;14717;46.924;15.474;2023-08-21T04:33:04;98400.00;;;19.51;100.00
27202;BME280;14717;46.924;15.474;2023-08-21T04:35:45;98398.97;;;19.56;100.00
27202;BME280;14717;46.924;15.474;2023-08-21T04:38:43;98402.03;;;19.71;100.00
27202;BME280;14717;46.924;15.474;2023-08-21T04:41:29;98409.69;;;19.91;100.00
27202;BME280;14717;46.924;15.474;2023-08-21T04:43:54;98401.63;;;19.81;100.00
27202;BME280;14717;46.924;15.474;2023-08-21T04:46:20;98399.97;;;19.80;100.00
27202;BME280;14717;46.924;15.474;2023-08-21T04:48:52;98403.41;;;19.94;100.00
27202;BME280;14717;46.924;15.474;2023-08-21T04:51:21;98407.81;;;20.03;100.00
27202;BME280;14717;46.924;15.474;2023-08-21T04:53:55;98409.56;;;20.07;100.00
27202;BME280;14717;46.924;15.474;2023-08-21T04:56:21;98412.91;;;20.01;100.00
27202;BME280;14717;46.924;15.474;2023-08-21T04:58:49;98415.72;;;20.01;100.00
27202;BME280;14717;46.924;15.474;2023-08-21T05:07:52;98415.63;;;20.18;100.00
27202;BME280;14717;46.924;15.474;2023-08-21T05:10:20;98417.69;;;20.29;100.00
27202;BME280;14717;46.924;15.474;2023-08-21T05:12:53;98413.03;;;20.33;100.00
27202;BME280;14717;46.924;15.474;2023-08-21T05:15:19;98421.38;;;20.42;100.00
27202;BME280;14717;46.924;15.474;2023-08-21T05:17:44;98428.38;;;20.56;100.00
27202;BME280;14717;46.924;15.474;2023-08-21T05:20:13;98420.97;;;20.72;100.00
27202;BME280;14717;46.924;15.474;2023-08-21T05:22:40;98426.72;;;20.75;100.00
27202;BME280;14717;46.924;15.474;2023-08-21T05:25:06;98424.31;;;20.86;100.00
27202;BME280;14717;46.924;15.474;2023-08-21T05:27:34;98434.94;;;21.00;100.00
27202;BME280;14717;46.924;15.474;2023-08-21T05:29:59;98423.38;;;21.14;100.00
27202;BME280;14717;46.924;15.474;2023-08-21T05:32:25;98428.91;;;21.22;100.00
27202;BME280;14717;46.924;15.474;2023-08-21T05:34:50;98429.03;;;21.37;100.00
27202;BME280;14717;46.924;15.474;2023-08-21T05:37:16;98425.72;;;21.56;100.00
27202;BME280;14717;46.924;15.474;2023-08-21T05:39:41;98428.31;;;21.73;100.00
27202;BME280;14717;46.924;15.474;2023-08-21T05:42:06;98433.25;;;21.87;100.00
27202;BME280;14717;46.924;15.474;2023-08-21T05:44:32;98441.91;;;21.82;100.00
27202;BME280;14717;46.924;15.474;2023-08-21T05:46:58;98432.66;;;21.94;100.00
27202;BME280;14717;46.924;15.474;2023-08-21T05:49:23;98435.56;;;22.09;100.00
27202;BME280;14717;46.924;15.474;2023-08-21T05:51:57;98429.38;;;22.27;100.00
27202;BME280;14717;46.924;15.474;2023-08-21T05:54:25;98437.44;;;22.41;100.00
27202;BME280;14717;46.924;15.474;2023-08-21T05:56:50;98433.69;;;22.37;100.00
27202;BME280;14717;46.924;15.474;2023-08-21T05:59:26;98432.16;;;22.51;100.00
27202;BME280;14717;46.924;15.474;2023-08-21T06:01:53;98429.19;;;22.60;100.00
27202;BME280;14717;46.924;15.474;2023-08-21T06:04:19;98432.47;;;22.62;100.00
27202;BME280;14717;46.924;15.474;2023-08-21T06:06:44;98436.66;;;22.67;100.00
27202;BME280;14717;46.924;15.474;2023-08-21T06:09:09;98436.38;;;22.84;100.00
27202;BME280;14717;46.924;15.474;2023-08-21T06:11:35;98444.31;;;23.06;100.00
27202;BME280;14717;46.924;15.474;2023-08-21T06:14:00;98439.16;;;23.23;100.00
27202;BME280;14717;46.924;15.474;2023-08-21T06:16:25;98440.38;;;23.38;100.00
27202;BME280;14717;46.924;15.474;2023-08-21T06:18:51;98441.31;;;23.42;100.00
27202;BME280;14717;46.924;15.474;2023-08-21T06:21:16;98448.59;;;23.43;100.00
27202;BME280;14717;46.924;15.474;2023-08-21T06:23:42;98446.53;;;23.55;100.00
27202;BME280;14717;46.924;15.474;2023-08-21T06:26:54;98445.66;;;23.82;100.00
27202;BME280;14717;46.924;15.474;2023-08-21T06:29:44;98446.63;;;23.89;99.95
27202;BME280;14717;46.924;15.474;2023-08-21T06:32:34;98446.94;;;23.99;100.00
27202;BME280;14717;46.924;15.474;2023-08-21T06:35:00;98444.00;;;24.11;99.40
27202;BME280;14717;46.924;15.474;2023-08-21T06:37:25;98446.72;;;24.23;100.00
27202;BME280;14717;46.924;15.474;2023-08-21T06:39:51;98445.53;;;24.39;97.82
27202;BME280;14717;46.924;15.474;2023-08-21T06:42:28;98449.44;;;24.50;95.22
27202;BME280;14717;46.924;15.474;2023-08-21T06:45:13;98440.69;;;24.74;93.27
27202;BME280;14717;46.924;15.474;2023-08-21T06:47:45;98446.59;;;24.84;91.75
27202;BME280;14717;46.924;15.474;2023-08-21T06:50:21;98443.66;;;24.96;90.04
27202;BME280;14717;46.924;15.474;2023-08-21T06:52:46;98450.41;;;25.11;90.39
27202;BME280;14717;46.924;15.474;2023-08-21T06:55:37;98451.53;;;25.25;88.98
27202;BME280;14717;46.924;15.474;2023-08-21T07:01:18;98457.69;;;25.49;89.82
27202;BME280;14717;46.924;15.474;2023-08-21T07:03:57;98459.81;;;25.74;87.18
27202;BME280;14717;46.924;15.474;2023-08-21T07:06:32;98452.31;;;25.63;86.48
27202;BME280;14717;46.924;15.474;2023-08-21T07:09:12;98456.16;;;25.74;86.29
27202;BME280;14717;46.924;15.474;2023-08-21T07:11:46;98460.53;;;25.90;84.81
27202;BME280;14717;46.924;15.474;2023-08-21T07:14:21;98458.38;;;26.06;82.92
27202;BME280;14717;46.924;15.474;2023-08-21T07:17:00;98458.31;;;26.03;83.40
27202;BME280;14717;46.924;15.474;2023-08-21T07:19:33;98451.56;;;26.11;83.83
27202;BME280;14717;46.924;15.474;2023-08-21T07:22:04;98456.53;;;26.17;83.90
27202;BME280;14717;46.924;15.474;2023-08-21T07:24:32;98464.59;;;26.37;84.00
27202;BME280;14717;46.924;15.474;2023-08-21T07:29:54;98451.19;;;26.60;84.96
27202;BME280;14717;46.924;15.474;2023-08-21T07:32:34;98461.03;;;26.92;82.42
27202;BME280;14717;46.924;15.474;2023-08-21T07:35:07;98454.09;;;26.89;82.19
27202;BME280;14717;46.924;15.474;2023-08-21T07:37:48;98457.78;;;26.93;79.93
27202;BME280;14717;46.924;15.474;2023-08-21T07:41:03;98457.44;;;26.98;79.06
27202;BME280;14717;46.924;15.474;2023-08-21T07:43:33;98455.28;;;27.17;78.67
27202;BME280;14717;46.924;15.474;2023-08-21T07:46:18;98453.09;;;27.37;78.79
27202;BME280;14717;46.924;15.474;2023-08-21T07:49:07;98452.16;;;27.58;76.58
27202;BME280;14717;46.924;15.474;2023-08-21T07:52:20;98457.75;;;27.48;75.75
27202;BME280;14717;46.924;15.474;2023-08-21T07:55:30;98453.22;;;27.80;75.79
27202;BME280;14717;46.924;15.474;2023-08-21T07:58:07;98463.09;;;27.92;74.89
27202;BME280;14717;46.924;15.474;2023-08-21T08:00:35;98442.91;;;28.04;74.29
27202;BME280;14717;46.924;15.474;2023-08-21T08:03:15;98447.16;;;28.24;71.56
27202;BME280;14717;46.924;15.474;2023-08-21T08:06:03;98451.75;;;28.39;71.30
27202;BME280;14717;46.924;15.474;2023-08-21T08:11:57;98441.75;;;28.59;76.06
27202;BME280;14717;46.924;15.474;2023-08-21T08:14:30;98450.81;;;28.68;73.64
27202;BME280;14717;46.924;15.474;2023-08-21T08:16:55;98446.81;;;28.79;72.61
27202;BME280;14717;46.924;15.474;2023-08-21T08:19:29;98446.09;;;28.92;67.88
27202;BME280;14717;46.924;15.474;2023-08-21T08:22:03;98433.59;;;29.14;68.58
27202;BME280;14717;46.924;15.474;2023-08-21T08:24:44;98441.66;;;29.05;69.67
27202;BME280;14717;46.924;15.474;2023-08-21T08:27:17;98435.63;;;29.17;68.62
27202;BME280;14717;46.924;15.474;2023-08-21T08:29:46;98435.34;;;29.36;67.73
27202;BME280;14717;46.924;15.474;2023-08-21T08:32:11;98428.44;;;29.40;70.56
27202;BME280;14717;46.924;15.474;2023-08-21T08:34:43;98431.69;;;29.46;67.98
27202;BME280;14717;46.924;15.474;2023-08-21T08:37:19;98433.00;;;29.69;65.40
27202;BME280;14717;46.924;15.474;2023-08-21T08:39:46;98428.94;;;29.70;67.19
27202;BME280;14717;46.924;15.474;2023-08-21T08:42:12;98424.50;;;29.79;66.01
27202;BME280;14717;46.924;15.474;2023-08-21T08:44:38;98435.94;;;29.93;64.01
27202;BME280;14717;46.924;15.474;2023-08-21T08:47:06;98421.19;;;29.70;65.30
27202;BME280;14717;46.924;15.474;2023-08-21T08:49:32;98423.63;;;29.58;68.34
27202;BME280;14717;46.924;15.474;2023-08-21T08:51:57;98423.72;;;29.89;66.54
27202;BME280;14717;46.924;15.474;2023-08-21T08:54:23;98422.91;;;30.20;62.80
27202;BME280;14717;46.924;15.474;2023-08-21T08:56:50;98428.66;;;30.41;60.85
27202;BME280;14717;46.924;15.474;2023-08-21T08:59:16;98429.06;;;30.60;60.42
27202;BME280;14717;46.924;15.474;2023-08-21T09:01:42;98423.31;;;30.74;57.27
27202;BME280;14717;46.924;15.474;2023-08-21T09:04:08;98418.84;;;30.59;59.08
27202;BME280;14717;46.924;15.474;2023-08-21T09:06:33;98426.16;;;30.91;58.00
27202;BME280;14717;46.924;15.474;2023-08-21T09:08:59;98419.19;;;30.99;56.84
27202;BME280;14717;46.924;15.474;2023-08-21T09:11:26;98408.47;;;31.24;56.42
27202;BME280;14717;46.924;15.474;2023-08-21T09:13:53;98409.69;;;31.33;59.21
27202;BME280;14717;46.924;15.474;2023-08-21T09:16:21;98411.69;;;31.46;59.24
27202;BME280;14717;46.924;15.474;2023-08-21T09:18:53;98412.09;;;31.52;55.59
27202;BME280;14717;46.924;15.474;2023-08-21T09:21:21;98414.88;;;31.62;53.22
27202;BME280;14717;46.924;15.474;2023-08-21T09:23:47;98412.72;;;31.80;52.54
27202;BME280;14717;46.924;15.474;2023-08-21T09:26:23;98413.44;;;32.01;56.87
27202;BME280;14717;46.924;15.474;2023-08-21T09:28:49;98402.69;;;32.12;53.07
27202;BME280;14717;46.924;15.474;2023-08-21T09:31:16;98404.53;;;31.89;55.02
27202;BME280;14717;46.924;15.474;2023-08-21T09:33:42;98397.19;;;31.81;55.10
27202;BME280;14717;46.924;15.474;2023-08-21T09:36:09;98403.94;;;32.15;51.02
27202;BME280;14717;46.924;15.474;2023-08-21T09:38:34;98401.81;;;32.22;53.14
27202;BME280;14717;46.924;15.474;2023-08-21T09:41:02;98401.13;;;32.08;53.95
27202;BME280;14717;46.924;15.474;2023-08-21T09:43:28;98394.53;;;32.11;55.50
27202;BME280;14717;46.924;15.474;2023-08-21T09:45:55;98400.47;;;32.33;53.59
27202;BME280;14717;46.924;15.474;2023-08-21T09:48:27;98396.84;;;32.29;53.00
27202;BME280;14717;46.924;15.474;2023-08-21T09:50:53;98396.44;;;32.31;55.23
27202;BME280;14717;46.924;15.474;2023-08-21T09:53:22;98391.59;;;32.68;52.69
27202;BME280;14717;46.924;15.474;2023-08-21T09:55:53;98388.34;;;32.66;51.32
27202;BME280;14717;46.924;15.474;2023-08-21T09:58:19;98390.41;;;32.66;48.14
27202;BME280;14717;46.924;15.474;2023-08-21T10:00:45;98385.69;;;32.85;47.31
27202;BME280;14717;46.924;15.474;2023-08-21T10:03:13;98385.50;;;33.03;48.04
27202;BME280;14717;46.924;15.474;2023-08-21T10:05:43;98381.50;;;32.97;48.40
27202;BME280;14717;46.924;15.474;2023-08-21T10:08:09;98383.47;;;32.63;47.97
27202;BME280;14717;46.924;15.474;2023-08-21T10:10:36;98373.88;;;32.36;47.21
27202;BME280;14717;46.924;15.474;2023-08-21T10:13:03;98382.53;;;32.73;47.96
27202;BME280;14717;46.924;15.474;2023-08-21T10:15:29;98373.06;;;32.79;47.94
27202;BME280;14717;46.924;15.474;2023-08-21T10:17:55;98380.59;;;33.03;47.20
27202;BME280;14717;46.924;15.474;2023-08-21T10:20:22;98372.16;;;33.22;46.54
27202;BME280;14717;46.924;15.474;2023-08-21T10:22:54;98374.56;;;32.94;48.31
27202;BME280;14717;46.924;15.474;2023-08-21T10:25:24;98378.13;;;33.05;47.71
27202;BME280;14717;46.924;15.474;2023-08-21T10:27:58;98376.41;;;33.44;46.75
27202;BME280;14717;46.924;15.474;2023-08-21T10:30:27;98364.31;;;33.59;43.02
27202;BME280;14717;46.924;15.474;2023-08-21T10:32:54;98367.47;;;33.35;43.78
27202;BME280;14717;46.924;15.474;2023-08-21T10:35:31;98363.31;;;33.43;45.51
27202;BME280;14717;46.924;15.474;2023-08-21T10:38:12;98368.31;;;33.95;44.58
27202;BME280;14717;46.924;15.474;2023-08-21T10:40:40;98372.00;;;33.96;42.89
27202;BME280;14717;46.924;15.474;2023-08-21T10:46:02;98372.94;;;33.86;41.81
27202;BME280;14717;46.924;15.474;2023-08-21T10:48:27;98363.94;;;33.84;41.13
27202;BME280;14717;46.924;15.474;2023-08-21T10:50:53;98366.28;;;33.66;41.09
27202;BME280;14717;46.924;15.474;2023-08-21T10:53:19;98360.69;;;33.82;39.62
27202;BME280;14717;46.924;15.474;2023-08-21T10:55:52;98365.94;;;33.87;40.59
27202;BME280;14717;46.924;15.474;2023-08-21T10:58:18;98365.56;;;33.85;38.53
27202;BME280;14717;46.924;15.474;2023-08-21T11:00:43;98363.22;;;33.76;38.22
27202;BME280;14717;46.924;15.474;2023-08-21T11:03:09;98366.91;;;33.77;38.40
27202;BME280;14717;46.924;15.474;2023-08-21T11:05:35;98364.03;;;33.77;38.54
27202;BME280;14717;46.924;15.474;2023-08-21T11:08:00;98362.88;;;34.00;37.39
27202;BME280;14717;46.924;15.474;2023-08-21T11:10:30;98367.47;;;33.95;35.48
27202;BME280;14717;46.924;15.474;2023-08-21T11:12:58;98374.81;;;33.69;38.48
27202;BME280;14717;46.924;15.474;2023-08-21T11:15:28;98365.13;;;33.60;39.94
27202;BME280;14717;46.924;15.474;2023-08-21T11:17:55;98362.84;;;33.48;41.72
27202;BME280;14717;46.924;15.474;2023-08-21T11:20:22;98362.53;;;33.69;40.99
27202;BME280;14717;46.924;15.474;2023-08-21T11:22:47;98353.72;;;33.83;38.93
27202;BME280;14717;46.924;15.474;2023-08-21T11:25:14;98349.53;;;33.61;40.04
27202;BME280;14717;46.924;15.474;2023-08-21T11:27:41;98363.09;;;33.60;40.72
27202;BME280;14717;46.924;15.474;2023-08-21T11:30:06;98360.09;;;33.67;39.43
27202;BME280;14717;46.924;15.474;2023-08-21T11:32:32;98361.38;;;33.93;40.23
27202;BME280;14717;46.924;15.474;2023-08-21T11:34:57;98355.72;;;33.86;39.48
27202;BME280;14717;46.924;15.474;2023-08-21T11:37:26;98361.94;;;33.54;39.03
27202;BME280;14717;46.924;15.474;2023-08-21T11:39:53;98358.94;;;33.32;39.96
27202;BME280;14717;46.924;15.474;2023-08-21T11:42:21;98354.06;;;33.58;39.19
27202;BME280;14717;46.924;15.474;2023-08-21T11:44:50;98353.16;;;33.65;39.79
27202;BME280;14717;46.924;15.474;2023-08-21T11:47:16;98351.91;;;33.36;41.22
27202;BME280;14717;46.924;15.474;2023-08-21T11:49:43;98356.72;;;33.46;40.62
27202;BME280;14717;46.924;15.474;2023-08-21T11:52:12;98348.31;;;33.29;42.79
27202;BME280;14717;46.924;15.474;2023-08-21T11:54:39;98354.22;;;33.48;42.38
27202;BME280;14717;46.924;15.474;2023-08-21T11:57:13;98362.34;;;33.53;40.60
27202;BME280;14717;46.924;15.474;2023-08-21T11:59:39;98348.81;;;33.53;40.56
27202;BME280;14717;46.924;15.474;2023-08-21T12:02:16;98351.53;;;33.34;40.91
27202;BME280;14717;46.924;15.474;2023-08-21T12:04:42;98346.78;;;33.21;39.33
27202;BME280;14717;46.924;15.474;2023-08-21T12:07:09;98348.88;;;33.50;40.76
27202;BME280;14717;46.924;15.474;2023-08-21T12:09:34;98341.31;;;33.33;41.67
27202;BME280;14717;46.924;15.474;2023-08-21T12:12:00;98345.75;;;33.38;43.30
27202;BME280;14717;46.924;15.474;2023-08-21T12:14:27;98340.94;;;33.61;41.29
27202;BME280;14717;46.924;15.474;2023-08-21T12:16:52;98326.94;;;33.93;40.62
27202;BME280;14717;46.924;15.474;2023-08-21T12:19:18;98331.56;;;34.32;41.07
27202;BME280;14717;46.924;15.474;2023-08-21T12:21:44;98335.16;;;33.91;39.99
27202;BME280;14717;46.924;15.474;2023-08-21T12:24:09;98331.47;;;33.64;40.21
27202;BME280;14717;46.924;15.474;2023-08-21T12:26:35;98331.03;;;33.92;39.50
27202;BME280;14717;46.924;15.474;2023-08-21T12:33:12;98328.50;;;34.65;37.36
27202;BME280;14717;46.924;15.474;2023-08-21T12:39:39;98328.84;;;34.71;37.27
27202;BME280;14717;46.924;15.474;2023-08-21T12:42:24;98320.00;;;34.81;38.33
27202;BME280;14717;46.924;15.474;2023-08-21T12:44:49;98316.06;;;34.94;39.41
27202;BME280;14717;46.924;15.474;2023-08-21T12:47:15;98323.75;;;34.78;36.91
27202;BME280;14717;46.924;15.474;2023-08-21T12:49:40;98317.72;;;34.73;38.60
27202;BME280;14717;46.924;15.474;2023-08-21T12:52:09;98319.38;;;34.51;37.33
27202;BME280;14717;46.924;15.474;2023-08-21T12:54:46;98320.22;;;34.71;37.57
27202;BME280;14717;46.924;15.474;2023-08-21T12:57:15;98315.84;;;34.86;37.73
27202;BME280;14717;46.924;15.474;2023-08-21T12:59:52;98305.16;;;34.63;37.06
27202;BME280;14717;46.924;15.474;2023-08-21T13:02:20;98308.00;;;33.98;40.28
27202;BME280;14717;46.924;15.474;2023-08-21T13:05:11;98318.47;;;34.08;39.10
27202;BME280;14717;46.924;15.474;2023-08-21T13:11:26;98310.38;;;34.49;39.32
27202;BME280;14717;46.924;15.474;2023-08-21T13:16:58;98299.19;;;34.74;38.67
27202;BME280;14717;46.924;15.474;2023-08-21T13:23:01;98298.47;;;34.70;37.88
27202;BME280;14717;46.924;15.474;2023-08-21T13:25:29;98297.31;;;34.86;39.35
27202;BME280;14717;46.924;15.474;2023-08-21T13:28:02;98290.69;;;34.47;38.01
27202;BME280;14717;46.924;15.474;2023-08-21T13:30:45;98294.47;;;34.86;36.52
27202;BME280;14717;46.924;15.474;2023-08-21T13:33:55;98292.31;;;35.10;35.65
27202;BME280;14717;46.924;15.474;2023-08-21T13:36:23;98297.19;;;35.13;35.44
27202;BME280;14717;46.924;15.474;2023-08-21T13:38:55;98292.06;;;35.39;34.77
27202;BME280;14717;46.924;15.474;2023-08-21T13:41:23;98295.63;;;35.08;36.71
27202;BME280;14717;46.924;15.474;2023-08-21T13:47:42;98284.84;;;34.32;38.21